createdAt,value
2018-12-26T10:49:59.210Z,21.1
2018-12-26T10:51:00.595Z,21.0
2018-12-26T10:52:22.051Z,21.0
2018-12-26T10:53:23.427Z,21.0
2018-12-26T10:54:44.891Z,20.9
2018-12-26T10:55:46.267Z,21.0
2018-12-26T10:57:07.963Z,20.9
2018-12-26T10:58:09.339Z,20.9
2018-12-26T10:59:30.803Z,20.9
2018-12-26T11:00:32.187Z,20.9
2018-12-26T11:01:53.651Z,20.8
2018-12-26T11:02:55.035Z,20.8
2018-12-26T11:04:16.739Z,20.8
2018-12-26T11:05:18.124Z,20.8
2018-12-26T11:06:39.595Z,20.7
2018-12-26T11:07:40.979Z,20.7
2018-12-26T11:09:02.451Z,20.8
2018-12-26T11:10:03.836Z,20.7
2018-12-26T11:11:25.540Z,20.7
2018-12-26T11:12:26.923Z,20.6
2018-12-26T11:13:48.396Z,20.5
2018-12-26T11:14:49.783Z,20.6
2018-12-26T11:16:11.252Z,20.5
2018-12-26T11:17:12.636Z,20.6
2018-12-26T11:18:34.341Z,20.6
2018-12-26T11:19:35.724Z,20.6
2018-12-26T11:20:57.196Z,20.6
2018-12-26T11:21:59.981Z,20.8
2018-12-26T11:23:20.029Z,20.7
2018-12-26T11:24:21.428Z,20.7
2018-12-26T11:25:42.900Z,20.8
2018-12-26T11:26:44.292Z,20.8
2018-12-26T11:28:20.732Z,20.9
2018-12-26T11:29:22.116Z,20.9
2018-12-26T11:30:43.812Z,20.9
2018-12-26T11:31:45.205Z,20.9
2018-12-26T11:33:06.678Z,21.0
2018-12-26T11:34:08.061Z,21.0
2018-12-26T11:35:29.541Z,21.0
2018-12-26T11:36:30.925Z,21.0
2018-12-26T11:37:52.628Z,21.0
2018-12-26T11:38:54.013Z,21.0
2018-12-26T11:40:15.485Z,21.0
2018-12-26T11:41:16.868Z,21.0
2018-12-26T11:42:38.342Z,20.9
2018-12-26T11:43:39.725Z,21.0
2018-12-26T11:45:01.439Z,21.0
2018-12-26T11:46:02.825Z,21.0
2018-12-26T11:47:24.293Z,20.9
2018-12-26T11:48:25.677Z,21.0
2018-12-26T11:49:47.149Z,20.9
2018-12-26T11:50:48.525Z,20.9
2018-12-26T11:52:10.042Z,20.8
2018-12-26T11:53:11.421Z,20.8
2018-12-26T11:54:32.901Z,20.8
2018-12-26T11:55:34.285Z,20.7
2018-12-26T11:56:55.757Z,20.7
2018-12-26T11:57:57.141Z,20.8
2018-12-26T11:59:26.998Z,20.7
2018-12-26T12:00:20.310Z,20.7
2018-12-26T12:01:41.789Z,20.7
2018-12-26T12:02:43.168Z,20.8
2018-12-26T12:04:04.648Z,20.8
2018-12-26T12:05:06.029Z,20.8
2018-12-26T12:06:27.750Z,20.8
2018-12-26T12:07:29.133Z,20.7
2018-12-26T12:08:50.607Z,20.7
2018-12-26T12:09:51.990Z,20.9
2018-12-26T12:11:13.462Z,20.9
2018-12-26T12:12:14.845Z,20.9
2018-12-26T12:13:36.550Z,20.9
2018-12-26T12:14:37.966Z,21.0
2018-12-26T12:15:59.446Z,20.9
2018-12-26T12:17:00.830Z,21.0
2018-12-26T12:18:22.294Z,20.9
2018-12-26T12:19:23.854Z,21.0
2018-12-26T12:20:45.558Z,21.1
2018-12-26T12:21:46.943Z,21.1
2018-12-26T12:23:08.422Z,21.1
2018-12-26T12:24:09.810Z,21.1
2018-12-26T12:25:31.278Z,21.1
2018-12-26T12:26:32.662Z,21.2
2018-12-26T12:27:54.182Z,21.1
2018-12-26T12:28:55.566Z,21.1
2018-12-26T12:30:17.038Z,21.1
2018-12-26T12:31:18.424Z,21.0
2018-12-26T12:32:39.910Z,21.1
2018-12-26T12:33:41.294Z,21.0
2018-12-26T12:35:02.998Z,21.0
2018-12-26T12:36:04.383Z,21.0
2018-12-26T12:37:26.439Z,21.0
2018-12-26T12:38:27.831Z,20.9
2018-12-26T12:39:49.311Z,20.9
2018-12-26T12:40:50.697Z,20.9
2018-12-26T12:42:12.399Z,20.9
2018-12-26T12:43:13.792Z,20.9
2018-12-26T12:44:35.262Z,20.8
2018-12-26T12:45:36.655Z,20.8
2018-12-26T12:46:58.127Z,20.8
2018-12-26T12:47:59.511Z,20.8
2018-12-26T12:49:21.215Z,20.8
2018-12-26T12:50:22.599Z,20.8
2018-12-26T12:51:44.071Z,20.8
2018-12-26T12:52:45.455Z,20.9
2018-12-26T12:54:06.927Z,20.9
2018-12-26T12:55:08.310Z,20.9
2018-12-26T12:56:30.023Z,21.0
2018-12-26T12:57:31.408Z,21.0
2018-12-26T12:58:52.883Z,20.9
2018-12-26T12:59:54.265Z,21.0
2018-12-26T13:01:15.735Z,21.1
2018-12-26T13:02:17.747Z,21.1
2018-12-26T13:03:46.372Z,21.1
2018-12-26T13:04:40.143Z,21.1
2018-12-26T13:06:01.623Z,21.2
2018-12-26T13:07:03.116Z,21.1
2018-12-26T13:08:24.447Z,21.2
2018-12-26T13:09:25.839Z,21.1
2018-12-26T13:10:47.481Z,21.2
2018-12-26T13:11:48.863Z,21.1
2018-12-26T13:13:10.344Z,21.1
2018-12-26T13:14:11.727Z,21.1
2018-12-26T13:15:33.199Z,21.1
2018-12-26T13:16:34.591Z,21.1
2018-12-26T13:17:56.111Z,21.0
2018-12-26T13:18:57.495Z,21.0
2018-12-26T13:20:18.967Z,20.9
2018-12-26T13:21:20.359Z,20.9
2018-12-26T13:22:41.831Z,20.9
2018-12-26T13:23:43.215Z,20.9
2018-12-26T13:25:04.927Z,20.8
2018-12-26T13:26:06.311Z,20.8
2018-12-26T13:27:27.783Z,20.7
2018-12-26T13:28:29.169Z,20.7
2018-12-26T13:29:53.893Z,20.7
2018-12-26T13:30:51.991Z,20.7
2018-12-26T13:32:13.512Z,20.7
2018-12-26T13:33:14.900Z,20.7
2018-12-26T13:34:36.375Z,20.6
2018-12-26T13:35:37.776Z,20.7
2018-12-26T13:36:59.249Z,20.7
2018-12-26T13:38:00.631Z,20.7
2018-12-26T13:39:22.271Z,20.7
2018-12-26T13:40:23.655Z,20.7
2018-12-26T13:41:45.127Z,20.8
2018-12-26T13:42:46.555Z,20.7
2018-12-26T13:44:07.984Z,20.9
2018-12-26T13:45:09.369Z,20.9
2018-12-26T13:46:33.845Z,20.9
2018-12-26T13:47:32.432Z,20.9
2018-12-26T13:48:53.904Z,21.0
2018-12-26T13:49:55.287Z,21.0
2018-12-26T13:51:16.768Z,21.1
2018-12-26T13:52:18.144Z,21.0
2018-12-26T13:53:39.856Z,21.1
2018-12-26T13:54:41.240Z,21.1
2018-12-26T13:56:02.716Z,21.2
2018-12-26T13:57:04.096Z,21.2
2018-12-26T13:58:25.568Z,21.2
2018-12-26T13:59:26.952Z,21.3
2018-12-26T14:00:48.472Z,21.2
2018-12-26T14:01:49.856Z,21.2
2018-12-26T14:03:11.330Z,21.2
2018-12-26T14:04:12.714Z,21.3
2018-12-26T14:05:34.613Z,21.2
2018-12-26T14:06:35.648Z,21.2
2018-12-26T14:07:57.353Z,21.1
2018-12-26T14:08:58.736Z,21.2
2018-12-26T14:10:20.208Z,21.2
2018-12-26T14:11:21.592Z,21.1
2018-12-26T14:12:43.065Z,21.0
2018-12-26T14:13:44.449Z,21.1
2018-12-26T14:15:06.153Z,21.0
2018-12-26T14:16:07.537Z,21.0
2018-12-26T14:17:29.009Z,20.9
2018-12-26T14:18:30.393Z,20.8
2018-12-26T14:19:51.873Z,20.9
2018-12-26T14:20:53.259Z,20.8
2018-12-26T14:22:14.769Z,20.9
2018-12-26T14:23:16.153Z,20.8
2018-12-26T14:24:37.636Z,20.9
2018-12-26T14:25:39.017Z,20.9
2018-12-26T14:27:00.497Z,20.9
2018-12-26T14:28:01.883Z,20.9
2018-12-26T14:29:23.377Z,20.9
2018-12-26T14:30:24.762Z,20.9
2018-12-26T14:31:46.225Z,20.9
2018-12-26T14:32:47.617Z,20.9
2018-12-26T14:34:09.092Z,21.0
2018-12-26T14:35:10.473Z,20.9
2018-12-26T14:36:32.180Z,21.0
2018-12-26T14:37:33.561Z,21.0
2018-12-26T14:38:55.034Z,21.0
2018-12-26T14:39:56.418Z,20.9
2018-12-26T14:41:17.890Z,20.9
2018-12-26T14:42:19.274Z,21.0
2018-12-26T14:43:40.993Z,21.0
2018-12-26T14:44:42.387Z,21.0
2018-12-26T14:46:03.860Z,20.9
2018-12-26T14:47:05.243Z,20.9
2018-12-26T14:48:26.714Z,20.9
2018-12-26T14:49:28.098Z,20.9
2018-12-26T14:50:49.805Z,20.9
2018-12-26T14:51:51.186Z,20.9
2018-12-26T14:53:12.659Z,20.8
2018-12-26T14:54:14.042Z,20.8
2018-12-26T14:55:35.514Z,20.8
2018-12-26T14:56:36.898Z,20.8
2018-12-26T14:57:58.613Z,20.7
2018-12-26T14:58:59.994Z,20.8
2018-12-26T15:00:21.466Z,20.7
2018-12-26T15:01:22.890Z,20.7
2018-12-26T15:02:44.370Z,20.6
2018-12-26T15:03:45.760Z,20.7
2018-12-26T15:05:07.450Z,20.7
2018-12-26T15:06:08.834Z,20.8
2018-12-26T15:07:30.306Z,20.7
2018-12-26T15:08:31.690Z,20.7
2018-12-26T15:09:53.162Z,20.7
2018-12-26T15:10:54.546Z,20.8
2018-12-26T15:12:16.042Z,20.8
2018-12-26T15:13:17.426Z,20.8
2018-12-26T15:14:38.906Z,20.8
2018-12-26T15:15:40.283Z,20.8
2018-12-26T15:17:01.754Z,20.9
2018-12-26T15:18:03.168Z,20.9
2018-12-26T15:19:24.842Z,20.8
2018-12-26T15:20:26.227Z,20.8
2018-12-26T15:21:47.690Z,20.8
2018-12-26T15:22:49.075Z,20.8
2018-12-26T15:24:10.546Z,20.9
2018-12-26T15:25:11.930Z,20.8
2018-12-26T15:26:33.450Z,20.8
2018-12-26T15:27:34.835Z,20.8
2018-12-26T15:28:56.454Z,20.8
2018-12-26T15:29:57.663Z,20.7
2018-12-26T15:31:19.098Z,20.7
2018-12-26T15:32:20.483Z,20.8
2018-12-26T15:33:42.117Z,20.7
2018-12-26T15:34:43.786Z,20.8
2018-12-26T15:36:05.212Z,20.7
2018-12-26T15:37:06.603Z,20.8
2018-12-26T15:38:28.059Z,20.8
2018-12-26T15:39:29.444Z,20.7
2018-12-26T15:40:50.963Z,20.7
2018-12-26T15:41:52.347Z,20.7
2018-12-26T15:43:13.821Z,20.7
2018-12-26T15:44:15.203Z,20.6
2018-12-26T15:45:36.683Z,20.6
2018-12-26T15:46:38.067Z,20.5
2018-12-26T15:47:59.619Z,20.5
2018-12-26T15:49:01.004Z,20.5
2018-12-26T15:50:22.486Z,20.6
2018-12-26T15:51:23.867Z,20.5
2018-12-26T15:52:45.348Z,20.6
2018-12-26T15:53:46.747Z,20.6
2018-12-26T15:55:08.371Z,20.7
2018-12-26T15:56:09.757Z,20.7
2018-12-26T15:57:31.238Z,20.7
2018-12-26T15:58:32.622Z,20.7
2018-12-26T15:59:54.092Z,20.7
2018-12-26T16:00:55.475Z,20.8
2018-12-26T16:02:16.971Z,20.8
2018-12-26T16:03:18.359Z,20.8
2018-12-26T16:04:39.828Z,20.8
2018-12-26T16:05:41.203Z,20.6
2018-12-26T16:07:02.693Z,20.7
2018-12-26T16:08:04.077Z,20.8
2018-12-26T16:09:25.581Z,20.8
2018-12-26T16:10:26.978Z,20.7
2018-12-26T16:11:48.565Z,20.8
2018-12-26T16:12:49.812Z,20.8
2018-12-26T16:14:11.284Z,20.7
2018-12-26T16:15:12.668Z,20.8
2018-12-26T16:16:34.371Z,20.8
2018-12-26T16:17:35.756Z,20.8
2018-12-26T16:18:57.228Z,20.8
2018-12-26T16:19:58.612Z,20.7
2018-12-26T16:21:20.084Z,20.7
2018-12-26T16:22:21.468Z,20.7
2018-12-26T16:23:43.180Z,20.7
2018-12-26T16:24:44.564Z,20.7
2018-12-26T16:26:06.038Z,20.8
2018-12-26T16:27:07.421Z,20.8
2018-12-26T16:28:28.892Z,20.7
2018-12-26T16:29:30.300Z,20.7
2018-12-26T16:30:51.988Z,20.7
2018-12-26T16:31:53.380Z,20.7
2018-12-26T16:33:14.850Z,20.7
2018-12-26T16:34:16.228Z,20.7
2018-12-26T16:35:37.718Z,20.7
2018-12-26T16:36:39.100Z,20.7
2018-12-26T16:38:01.650Z,20.8
2018-12-26T16:39:01.965Z,20.7
2018-12-26T16:40:23.437Z,20.7
2018-12-26T16:41:24.821Z,20.8
2018-12-26T16:42:46.285Z,20.8
2018-12-26T16:43:47.677Z,20.7
2018-12-26T16:45:09.373Z,20.8
2018-12-26T16:46:10.773Z,20.7
2018-12-26T16:47:32.237Z,20.7
2018-12-26T16:48:33.621Z,20.8
2018-12-26T16:49:55.093Z,20.7
2018-12-26T16:50:56.477Z,20.7
2018-12-26T16:52:17.997Z,20.7
2018-12-26T16:53:19.381Z,20.7
2018-12-26T16:54:40.853Z,20.6
2018-12-26T16:55:42.237Z,20.6
2018-12-26T16:57:03.781Z,20.6
2018-12-26T16:58:05.165Z,20.5
2018-12-26T16:59:26.661Z,20.5
2018-12-26T17:00:28.046Z,20.5
2018-12-26T17:01:49.517Z,20.5
2018-12-26T17:02:50.909Z,20.5
2018-12-26T17:04:12.389Z,20.5
2018-12-26T17:05:13.773Z,20.5
2018-12-26T17:06:35.270Z,20.6
2018-12-26T17:07:36.657Z,20.5
2018-12-26T17:08:58.125Z,20.5
2018-12-26T17:09:59.502Z,20.6
2018-12-26T17:11:20.981Z,20.6
2018-12-26T17:12:22.461Z,20.7
2018-12-26T17:13:44.102Z,20.7
2018-12-26T17:14:45.478Z,20.7
2018-12-26T17:16:06.982Z,20.8
2018-12-26T17:17:08.384Z,20.7
2018-12-26T17:18:29.858Z,20.8
2018-12-26T17:19:31.238Z,20.7
2018-12-26T17:20:52.726Z,20.8
2018-12-26T17:21:54.102Z,20.7
2018-12-26T17:23:15.575Z,20.7
2018-12-26T17:24:17.032Z,20.8
2018-12-26T17:25:38.438Z,20.7
2018-12-26T17:26:39.822Z,20.8
2018-12-26T17:28:01.526Z,20.8
2018-12-26T17:29:02.910Z,20.7
2018-12-26T17:30:24.388Z,20.7
2018-12-26T17:31:25.766Z,20.7
2018-12-26T17:32:47.238Z,20.7
2018-12-26T17:33:48.622Z,20.8
2018-12-26T17:35:10.123Z,20.7
2018-12-26T17:36:11.518Z,20.6
2018-12-26T17:37:32.960Z,20.7
2018-12-26T17:38:34.350Z,20.8
2018-12-26T17:39:55.814Z,20.7
2018-12-26T17:40:57.926Z,20.7
2018-12-26T17:42:19.454Z,20.8
2018-12-26T17:43:20.878Z,20.8
2018-12-26T17:44:42.350Z,20.8
2018-12-26T17:45:43.734Z,20.8
2018-12-26T17:47:05.318Z,20.8
2018-12-26T17:48:07.095Z,20.8
2018-12-26T17:49:28.798Z,20.8
2018-12-26T17:50:30.182Z,20.8
2018-12-26T17:51:52.650Z,20.9
2018-12-26T17:52:53.006Z,20.8
2018-12-26T17:54:14.478Z,20.8
2018-12-26T17:55:15.863Z,20.8
2018-12-26T17:56:37.567Z,20.8
2018-12-26T17:57:38.953Z,20.8
2018-12-26T17:59:00.415Z,20.9
2018-12-26T18:00:01.808Z,20.8
2018-12-26T18:01:23.278Z,20.8
2018-12-26T18:02:24.663Z,20.8
2018-12-26T18:03:46.175Z,20.9
2018-12-26T18:04:47.559Z,20.8
2018-12-26T18:06:09.031Z,20.8
2018-12-26T18:07:10.415Z,20.8
2018-12-26T18:08:31.887Z,20.7
2018-12-26T18:09:33.271Z,20.8
2018-12-26T18:10:54.975Z,20.7
2018-12-26T18:11:56.374Z,20.8
2018-12-26T18:13:17.835Z,20.7
2018-12-26T18:14:19.218Z,20.7
2018-12-26T18:15:40.863Z,20.6
2018-12-26T18:16:42.316Z,20.6
2018-12-26T18:18:03.951Z,20.7
2018-12-26T18:19:05.303Z,20.7
2018-12-26T18:20:26.775Z,20.7
